createdAt,value
2022-09-03T00:00:30.432Z,16.50
2022-09-03T00:03:40.635Z,16.40
2022-09-03T00:06:33.891Z,16.30
2022-09-03T00:09:31.898Z,16.30
2022-09-03T00:12:32.145Z,16.20
2022-09-03T00:15:21.269Z,16.10
2022-09-03T00:18:11.924Z,16.10
2022-09-03T00:21:12.789Z,16.00
2022-09-03T00:24:03.306Z,15.90
2022-09-03T00:26:55.047Z,15.80
2022-09-03T00:29:51.609Z,15.80
2022-09-03T00:32:47.377Z,15.70
2022-09-03T00:35:44.692Z,15.70
2022-09-03T00:38:30.544Z,15.70
2022-09-03T00:41:31.405Z,15.70
2022-09-03T00:44:38.560Z,15.80
2022-09-03T00:47:47.165Z,15.70
2022-09-03T00:51:25.902Z,15.70
2022-09-03T00:54:14.079Z,15.70
2022-09-03T00:57:35.276Z,15.60
2022-09-03T01:00:21.779Z,15.60
2022-09-03T01:03:11.625Z,15.50
2022-09-03T01:06:18.951Z,15.50
2022-09-03T01:10:05.839Z,15.60
2022-09-03T01:12:51.440Z,15.50
2022-09-03T01:15:53.628Z,15.50
2022-09-03T01:18:50.450Z,15.50
2022-09-03T01:22:05.287Z,15.60
2022-09-03T01:25:33.040Z,15.50
2022-09-03T01:28:21.973Z,15.50
2022-09-03T01:31:21.341Z,15.50
2022-09-03T01:34:22.240Z,15.40
2022-09-03T01:37:27.128Z,15.40
2022-09-03T01:40:16.039Z,15.40
2022-09-03T01:43:36.861Z,15.40
2022-09-03T01:46:42.032Z,15.30
2022-09-03T01:49:40.172Z,15.30
2022-09-03T01:52:42.103Z,15.30
2022-09-03T01:55:50.850Z,15.30
2022-09-03T01:58:43.236Z,15.30
2022-09-03T02:01:56.130Z,15.20
2022-09-03T02:04:43.455Z,15.20
2022-09-03T02:07:35.326Z,15.20
2022-09-03T02:10:29.948Z,15.20
2022-09-03T02:13:20.560Z,15.20
2022-09-03T02:16:20.363Z,15.10
2022-09-03T02:19:15.794Z,15.10
2022-09-03T02:22:01.571Z,15.10
2022-09-03T02:24:47.600Z,15.10
2022-09-03T02:27:33.732Z,15.00
2022-09-03T02:30:22.507Z,15.00
2022-09-03T02:33:09.113Z,14.90
2022-09-03T02:35:55.538Z,14.90
2022-09-03T02:38:43.104Z,14.90
2022-09-03T02:41:28.984Z,14.90
2022-09-03T02:44:37.711Z,14.80
2022-09-03T02:47:25.698Z,14.80
2022-09-03T02:50:11.192Z,14.70
2022-09-03T02:52:57.034Z,14.70
2022-09-03T02:55:42.551Z,14.70
2022-09-03T02:58:29.078Z,14.70
2022-09-03T03:01:21.821Z,14.60
2022-09-03T03:04:09.867Z,14.60
2022-09-03T03:06:56.017Z,14.60
2022-09-03T03:09:41.515Z,14.60
2022-09-03T03:12:27.352Z,14.60
2022-09-03T03:15:12.858Z,14.60
2022-09-03T03:17:58.512Z,14.60
2022-09-03T03:20:44.750Z,14.60
2022-09-03T03:23:32.410Z,14.60
2022-09-03T03:26:20.236Z,14.60
2022-09-03T03:29:06.177Z,14.70
2022-09-03T03:31:54.209Z,14.60
2022-09-03T03:34:40.057Z,14.60
2022-09-03T03:37:25.887Z,14.70
2022-09-03T03:40:11.864Z,14.70
2022-09-03T03:42:58.640Z,14.70
2022-09-03T03:45:44.390Z,14.70
2022-09-03T03:48:29.903Z,14.70
2022-09-03T03:51:15.963Z,14.70
2022-09-03T03:54:05.003Z,14.70
2022-09-03T03:56:55.770Z,14.70
2022-09-03T03:59:41.796Z,14.70
2022-09-03T04:02:27.464Z,14.70
2022-09-03T04:05:13.081Z,14.70
2022-09-03T04:08:02.811Z,14.70
2022-09-03T04:10:48.960Z,14.70
2022-09-03T04:13:39.620Z,14.60
2022-09-03T04:16:27.525Z,14.70
2022-09-03T04:19:13.593Z,14.60
2022-09-03T04:21:59.204Z,14.60
2022-09-03T04:24:45.043Z,14.60
2022-09-03T04:27:31.254Z,14.70
2022-09-03T04:30:17.204Z,14.70
2022-09-03T04:33:02.703Z,14.70
2022-09-03T04:35:48.364Z,14.70
2022-09-03T04:38:35.478Z,14.70
2022-09-03T04:41:24.940Z,14.70
2022-09-03T04:44:10.473Z,14.70
2022-09-03T04:46:56.095Z,14.80
2022-09-03T04:49:41.708Z,14.70
2022-09-03T04:52:31.468Z,14.70
2022-09-03T04:55:19.506Z,14.70
2022-09-03T04:58:07.756Z,14.70
2022-09-03T05:00:54.199Z,14.70
2022-09-03T05:03:39.798Z,14.80
2022-09-03T05:06:26.652Z,14.80
2022-09-03T05:09:12.305Z,14.70
2022-09-03T05:11:58.260Z,14.80
2022-09-03T05:14:43.743Z,14.80
2022-09-03T05:17:29.691Z,14.80
2022-09-03T05:20:21.662Z,14.80
2022-09-03T05:23:08.112Z,14.80
2022-09-03T05:25:58.719Z,14.80
2022-09-03T05:28:45.602Z,14.80
2022-09-03T05:31:32.283Z,14.80
2022-09-03T05:34:18.538Z,14.80
2022-09-03T05:37:04.350Z,14.80
2022-09-03T05:39:50.346Z,14.80
2022-09-03T05:42:37.974Z,14.80
2022-09-03T05:45:24.854Z,14.80
2022-09-03T05:48:10.416Z,14.80
2022-09-03T05:51:08.925Z,14.80
2022-09-03T05:53:55.652Z,14.80
2022-09-03T05:56:42.530Z,14.80
2022-09-03T05:59:28.069Z,14.90
2022-09-03T06:02:14.081Z,14.90
2022-09-03T06:04:59.969Z,14.90
2022-09-03T06:07:49.628Z,14.90
2022-09-03T06:10:40.844Z,15.00
2022-09-03T06:13:26.755Z,15.00
2022-09-03T06:16:12.648Z,15.10
2022-09-03T06:18:58.883Z,15.20
2022-09-03T06:21:46.317Z,15.20
2022-09-03T06:24:32.010Z,15.20
2022-09-03T06:27:20.488Z,15.20
2022-09-03T06:30:07.458Z,15.30
2022-09-03T06:32:54.149Z,15.30
2022-09-03T06:35:41.714Z,15.30
2022-09-03T06:38:37.807Z,15.30
2022-09-03T06:41:29.316Z,15.30
2022-09-03T06:44:16.009Z,15.40
2022-09-03T06:47:02.326Z,15.50
2022-09-03T06:49:48.142Z,15.50
2022-09-03T06:52:33.615Z,15.60
2022-09-03T06:55:19.493Z,15.70
2022-09-03T06:58:05.035Z,15.80
2022-09-03T07:00:53.024Z,15.90
2022-09-03T07:03:40.552Z,16.00
2022-09-03T07:06:28.577Z,16.20
2022-09-03T07:09:15.616Z,16.20
2022-09-03T07:12:01.329Z,16.30
2022-09-03T07:14:47.893Z,16.50
2022-09-03T07:17:37.075Z,16.50
2022-09-03T07:20:23.037Z,16.70
2022-09-03T07:23:08.728Z,16.80
2022-09-03T07:25:59.091Z,16.80
2022-09-03T07:28:49.052Z,17.00
2022-09-03T07:31:38.223Z,17.00
2022-09-03T07:34:25.621Z,17.10
2022-09-03T07:37:13.493Z,17.20
2022-09-03T07:40:03.446Z,17.20
2022-09-03T07:42:52.116Z,17.30
2022-09-03T07:45:41.262Z,17.40
2022-09-03T07:48:27.146Z,17.50
2022-09-03T07:51:12.845Z,17.50
2022-09-03T07:54:00.697Z,17.50
2022-09-03T07:56:46.758Z,17.60
2022-09-03T07:59:33.175Z,17.70
2022-09-03T08:02:18.589Z,17.70
2022-09-03T08:05:04.645Z,17.80
2022-09-03T08:07:51.089Z,17.80
2022-09-03T08:10:38.297Z,17.90
2022-09-03T08:13:24.551Z,18.00
2022-09-03T08:16:14.002Z,18.10
2022-09-03T08:18:59.900Z,18.20
2022-09-03T08:21:46.287Z,18.30
2022-09-03T08:24:33.258Z,18.40
2022-09-03T08:27:26.873Z,18.40
2022-09-03T08:30:13.295Z,18.60
2022-09-03T08:33:04.906Z,18.60
2022-09-03T08:35:54.923Z,18.70
2022-09-03T08:38:43.674Z,18.80
2022-09-03T08:41:52.571Z,18.90
2022-09-03T08:44:49.283Z,19.00
2022-09-03T08:47:43.251Z,19.00
2022-09-03T08:50:38.105Z,19.20
2022-09-03T08:53:29.772Z,19.20
2022-09-03T08:56:31.257Z,19.30
2022-09-03T08:59:17.224Z,19.50
2022-09-03T09:02:08.632Z,19.50
2022-09-03T09:05:14.110Z,19.60
2022-09-03T09:08:24.419Z,19.70
2022-09-03T09:11:40.378Z,19.80
2022-09-03T09:14:59.034Z,20.00
2022-09-03T09:18:09.916Z,20.10
2022-09-03T09:21:17.781Z,20.20
2022-09-03T09:24:22.007Z,20.40
2022-09-03T09:27:19.556Z,20.50
2022-09-03T09:30:05.781Z,20.70
2022-09-03T09:32:51.848Z,20.70
2022-09-03T09:35:41.315Z,20.90
2022-09-03T09:38:38.445Z,20.90
2022-09-03T09:41:29.549Z,21.00
2022-09-03T09:44:22.707Z,21.10
2022-09-03T09:47:40.278Z,21.20
2022-09-03T09:50:26.640Z,21.30
2022-09-03T09:53:16.307Z,21.30
2022-09-03T09:56:05.381Z,21.30
2022-09-03T09:58:53.556Z,21.60
2022-09-03T10:01:41.650Z,21.70
2022-09-03T10:04:33.464Z,21.70
2022-09-03T10:07:24.335Z,21.90
2022-09-03T10:10:13.459Z,22.10
2022-09-03T10:13:09.440Z,22.30
2022-09-03T10:16:05.354Z,22.50
2022-09-03T10:19:04.053Z,22.60
2022-09-03T10:22:08.797Z,22.80
2022-09-03T10:25:04.723Z,22.90
2022-09-03T10:27:54.048Z,22.80
2022-09-03T10:31:18.756Z,22.90
2022-09-03T10:34:21.444Z,23.20
2022-09-03T10:37:13.378Z,23.20
2022-09-03T10:40:20.291Z,23.50
2022-09-03T10:43:45.130Z,23.60
2022-09-03T10:47:23.199Z,23.70
2022-09-03T10:50:17.641Z,24.00
2022-09-03T10:53:41.897Z,24.10
2022-09-03T10:56:31.409Z,24.30
2022-09-03T10:59:29.004Z,24.30
2022-09-03T11:02:15.503Z,24.10
2022-09-03T11:05:20.879Z,24.20
2022-09-03T11:08:46.611Z,24.30
2022-09-03T11:11:38.136Z,24.40
2022-09-03T11:14:47.100Z,24.60
2022-09-03T11:17:57.007Z,24.50
2022-09-03T11:20:43.969Z,25.00
2022-09-03T11:23:33.695Z,25.30
2022-09-03T11:26:23.133Z,25.70
2022-09-03T11:29:38.168Z,25.80
2022-09-03T11:32:59.922Z,25.80
2022-09-03T11:35:45.930Z,25.90
2022-09-03T11:38:32.093Z,26.10
2022-09-03T11:41:29.708Z,26.30
2022-09-03T11:44:19.627Z,26.70
2022-09-03T11:47:23.336Z,27.10
2022-09-03T11:50:25.591Z,26.80
2022-09-03T11:53:33.270Z,26.60
2022-09-03T11:56:20.391Z,26.50
2022-09-03T11:59:06.019Z,26.20
2022-09-03T12:01:57.479Z,26.50
2022-09-03T12:05:02.507Z,27.00
2022-09-03T12:08:09.977Z,27.40
2022-09-03T12:11:17.038Z,27.70
2022-09-03T12:14:33.430Z,27.30
2022-09-03T12:18:10.409Z,27.60
2022-09-03T12:20:55.899Z,27.60
2022-09-03T12:23:45.016Z,27.60
2022-09-03T12:26:30.487Z,27.80
2022-09-03T12:29:28.178Z,28.00
2022-09-03T12:32:18.650Z,28.00
2022-09-03T12:35:58.384Z,27.90
2022-09-03T12:38:26.612Z,27.80
2022-09-03T12:41:28.221Z,28.00
2022-09-03T12:44:13.885Z,27.80
2022-09-03T12:47:39.571Z,28.00
2022-09-03T12:50:25.622Z,28.10
2022-09-03T12:53:15.552Z,28.00
2022-09-03T12:56:02.987Z,28.80
2022-09-03T12:58:49.785Z,28.20
2022-09-03T13:01:52.680Z,27.80
2022-09-03T13:04:40.917Z,27.50
2022-09-03T13:07:35.187Z,27.80
2022-09-03T13:10:31.297Z,28.10
2022-09-03T13:13:30.035Z,28.00
2022-09-03T13:16:41.778Z,28.60
2022-09-03T13:19:44.561Z,28.40
2022-09-03T13:22:47.007Z,28.90
2022-09-03T13:26:06.218Z,29.60
2022-09-03T13:29:26.042Z,29.60
2022-09-03T13:32:29.544Z,29.60
2022-09-03T13:35:29.543Z,29.90
2022-09-03T13:38:53.384Z,29.30
2022-09-03T13:41:54.283Z,29.80
2022-09-03T13:44:50.268Z,29.50
2022-09-03T13:48:18.279Z,29.80
2022-09-03T13:51:13.677Z,29.70
2022-09-03T13:54:04.750Z,29.90
2022-09-03T13:57:08.833Z,29.50
2022-09-03T14:00:10.172Z,29.30
2022-09-03T14:03:19.298Z,29.30
2022-09-03T14:06:30.259Z,28.90
2022-09-03T14:09:36.065Z,29.40
2022-09-03T14:12:46.485Z,29.00
2022-09-03T14:15:52.725Z,28.80
2022-09-03T14:19:07.507Z,29.40
2022-09-03T14:22:01.785Z,29.60
2022-09-03T14:25:01.463Z,28.80
2022-09-03T14:27:47.202Z,29.40
2022-09-03T14:31:10.895Z,29.30
2022-09-03T14:34:05.884Z,29.80
2022-09-03T14:37:10.094Z,29.50
2022-09-03T14:39:59.780Z,29.00
2022-09-03T14:43:06.791Z,29.20
2022-09-03T14:46:43.494Z,28.80
2022-09-03T14:49:52.588Z,29.30
2022-09-03T14:53:12.223Z,29.50
2022-09-03T14:56:26.121Z,29.10
2022-09-03T14:59:34.839Z,28.40
2022-09-03T15:02:43.115Z,28.30
2022-09-03T15:05:42.571Z,29.20
2022-09-03T15:08:54.536Z,29.50
2022-09-03T15:12:16.647Z,29.10
2022-09-03T15:15:21.890Z,28.70
2022-09-03T15:18:43.191Z,28.70
2022-09-03T15:21:35.336Z,29.20
2022-09-03T15:24:36.261Z,29.40
2022-09-03T15:27:42.089Z,29.10
2022-09-03T15:30:54.696Z,29.20
2022-09-03T15:33:52.961Z,29.50
2022-09-03T15:36:43.606Z,29.40
2022-09-03T15:39:37.036Z,29.50
2022-09-03T15:42:27.774Z,29.30
2022-09-03T15:45:30.752Z,29.30
2022-09-03T15:48:23.579Z,28.80
2022-09-03T15:51:13.485Z,28.90
2022-09-03T15:54:19.959Z,28.50
2022-09-03T15:57:18.141Z,28.40
2022-09-03T16:00:21.896Z,28.40
2022-09-03T16:03:11.443Z,28.30
2022-09-03T16:06:09.869Z,28.20
2022-09-03T16:09:05.167Z,28.10
2022-09-03T16:12:10.556Z,28.20
2022-09-03T16:15:44.664Z,28.00
2022-09-03T16:18:39.543Z,28.00
2022-09-03T16:21:35.700Z,28.10
2022-09-03T16:24:28.873Z,28.00
2022-09-03T16:27:38.446Z,27.80
2022-09-03T16:30:33.064Z,27.50
2022-09-03T16:33:23.698Z,27.70
2022-09-03T16:36:37.832Z,27.30
2022-09-03T16:39:45.422Z,27.00
2022-09-03T16:42:49.517Z,26.60
2022-09-03T16:45:55.145Z,26.40
2022-09-03T16:48:51.539Z,26.50
2022-09-03T16:52:04.886Z,26.30
2022-09-03T16:54:55.868Z,26.10
2022-09-03T16:57:58.362Z,25.90
2022-09-03T17:01:03.194Z,25.60
2022-09-03T17:04:21.020Z,25.60
2022-09-03T17:07:12.796Z,25.40
2022-09-03T17:10:21.727Z,25.30
2022-09-03T17:13:35.044Z,25.10
2022-09-03T17:16:53.339Z,24.90
2022-09-03T17:19:44.742Z,24.60
2022-09-03T17:22:57.643Z,24.30
2022-09-03T17:26:06.653Z,23.90
2022-09-03T17:28:59.076Z,23.50
2022-09-03T17:32:32.036Z,23.10
2022-09-03T17:35:33.853Z,22.90
2022-09-03T17:38:41.012Z,22.60
2022-09-03T17:42:12.077Z,22.50
2022-09-03T17:45:29.455Z,22.50
2022-09-03T17:48:40.350Z,22.30
2022-09-03T17:52:20.930Z,22.20
2022-09-03T17:55:31.546Z,22.00
2022-09-03T17:58:32.357Z,21.80
2022-09-03T18:01:24.874Z,21.60
2022-09-03T18:04:28.893Z,21.50
2022-09-03T18:07:23.927Z,21.30
2022-09-03T18:10:16.257Z,21.20
2022-09-03T18:13:25.004Z,21.00
2022-09-03T18:16:29.454Z,21.00
2022-09-03T18:20:00.892Z,20.80
2022-09-03T18:23:46.787Z,20.70
2022-09-03T18:26:56.703Z,20.60
2022-09-03T18:30:14.829Z,20.60
2022-09-03T18:33:18.995Z,20.50
2022-09-03T18:36:24.647Z,20.40
2022-09-03T18:39:45.078Z,20.30
2022-09-03T18:43:33.328Z,20.20
2022-09-03T18:51:07.559Z,20.00
2022-09-03T18:55:06.843Z,19.90
2022-09-03T18:58:26.945Z,19.70
2022-09-03T19:01:49.619Z,19.60
2022-09-03T19:05:25.664Z,19.60
2022-09-03T19:08:57.440Z,19.50
2022-09-03T19:12:24.776Z,19.40
2022-09-03T19:15:44.801Z,19.30
2022-09-03T19:18:48.975Z,19.20
2022-09-03T19:22:02.262Z,19.20
2022-09-03T19:25:06.309Z,19.10
2022-09-03T19:28:29.292Z,19.10
2022-09-03T19:31:52.376Z,19.00
2022-09-03T19:35:05.953Z,19.00
2022-09-03T19:38:26.361Z,18.90
2022-09-03T19:41:45.818Z,18.80
2022-09-03T19:45:25.184Z,18.80
2022-09-03T19:48:39.323Z,18.70
2022-09-03T19:52:35.292Z,18.70
2022-09-03T19:55:44.835Z,18.60
2022-09-03T19:58:52.007Z,18.50
2022-09-03T20:01:57.187Z,18.50
2022-09-03T20:05:19.064Z,18.40
2022-09-03T20:08:24.256Z,18.30
2022-09-03T20:11:20.410Z,18.10
2022-09-03T20:14:13.891Z,18.00
2022-09-03T20:17:06.135Z,17.90
2022-09-03T20:20:06.919Z,17.80
2022-09-03T20:23:12.518Z,17.70
2022-09-03T20:26:10.462Z,17.50
2022-09-03T20:29:07.245Z,17.40
2022-09-03T20:32:13.237Z,17.40
2022-09-03T20:35:22.242Z,17.30
2022-09-03T20:38:42.991Z,17.20
2022-09-03T20:41:34.770Z,17.20
2022-09-03T20:44:32.318Z,17.10
2022-09-03T20:47:41.383Z,17.10
2022-09-03T20:50:56.478Z,17.10
2022-09-03T20:54:19.565Z,17.10
2022-09-03T20:57:12.352Z,17.10
2022-09-03T21:00:13.554Z,17.10
2022-09-03T21:03:16.069Z,17.10
2022-09-03T21:06:25.682Z,17.10
2022-09-03T21:09:20.923Z,17.10
2022-09-03T21:12:57.258Z,17.10
2022-09-03T21:16:24.676Z,17.10
2022-09-03T21:19:32.076Z,17.10
2022-09-03T21:22:22.670Z,17.10
2022-09-03T21:25:12.122Z,17.00
2022-09-03T21:28:15.227Z,17.00
2022-09-03T21:31:02.716Z,17.00
2022-09-03T21:33:51.192Z,16.90
2022-09-03T21:36:39.325Z,16.90
2022-09-03T21:39:36.915Z,16.90
2022-09-03T21:42:52.870Z,16.90
2022-09-03T21:46:08.175Z,16.90
2022-09-03T21:49:02.987Z,16.90
2022-09-03T21:51:58.371Z,16.90
2022-09-03T21:54:44.151Z,16.90
2022-09-03T21:57:39.603Z,16.90
2022-09-03T22:00:32.541Z,16.80
2022-09-03T22:03:18.277Z,16.80
2022-09-03T22:06:14.144Z,16.80
2022-09-03T22:09:09.605Z,16.80
2022-09-03T22:12:50.332Z,16.80
2022-09-03T22:15:39.418Z,16.90
2022-09-03T22:18:31.672Z,17.00
2022-09-03T22:21:44.345Z,17.00
2022-09-03T22:24:39.112Z,17.00
2022-09-03T22:27:35.572Z,17.00
2022-09-03T22:30:21.500Z,16.90
2022-09-03T22:33:28.665Z,16.80
2022-09-03T22:36:16.188Z,16.70
2022-09-03T22:39:07.741Z,16.60
2022-09-03T22:42:08.602Z,16.50
2022-09-03T22:45:19.465Z,16.40
2022-09-03T22:48:27.435Z,16.30
2022-09-03T22:51:13.526Z,16.30
2022-09-03T22:54:17.480Z,16.20
2022-09-03T22:57:04.741Z,16.10
2022-09-03T23:00:04.927Z,16.10
2022-09-03T23:03:07.712Z,16.10
2022-09-03T23:06:07.785Z,16.10
2022-09-03T23:09:07.189Z,16.00
2022-09-03T23:12:00.735Z,16.00
2022-09-03T23:14:51.566Z,15.90
2022-09-03T23:17:42.810Z,15.90
2022-09-03T23:20:30.310Z,15.90
2022-09-03T23:23:28.756Z,15.80
2022-09-03T23:26:39.769Z,15.80
2022-09-03T23:29:33.810Z,15.80
2022-09-03T23:32:19.689Z,15.70
2022-09-03T23:35:18.144Z,15.70
2022-09-03T23:38:03.544Z,15.70
2022-09-03T23:40:50.548Z,15.70
2022-09-03T23:43:59.607Z,15.60
2022-09-03T23:47:21.600Z,15.60
2022-09-03T23:50:19.713Z,15.60
2022-09-03T23:53:29.386Z,15.50
2022-09-03T23:56:39.260Z,15.50
2022-09-03T23:59:57.304Z,15.50
